Terminal Aerodrome Forecast
Issued by NWS

Home | Current Version | Previous Version | Text Only | Print | Product List | Glossary On
Versions: 1 2 3 4 5 6 7 8 9 10 11 12 13 14 15
000
FTUS43 KDTX 211123
TAFPTK
TAF
KPTK 211123Z 2112/2212 15006KT P6SM OVC200
     FM211300 22007KT P6SM BKN045 OVC150
     FM211500 25006KT P6SM BKN035 OVC100
      TEMPO 2117/2119 6SM -SHRA BKN022 OVC035
     FM211900 25006KT P6SM BKN028 OVC150
     FM220100 VRB03KT 2SM BR OVC006
     FM220500 22003KT 3/4SM BR OVC002=

USA.gov is the U.S. government's official web portal to all federal, state and local government web resources and services.